Time;durP1;ratioP1;P1;durP2;ratioP2;P2;SDS_P1;SDS_P2;PMS_P1;PMS_P2;Temp;Humidity;BMP_temperature;BMP_pressure;BME280_temperature;BME280_humidity;BME280_pressure;Samples;Min_cycle;Max_cycle;Signal;HPM_P1;HPM_P2
2024/01/30 00:02:43;;;;;;;20.93;8.90;;;;;;;;;;10450623;28;20219;-66
2024/01/30 00:07:43;;;;;;;14.60;7.27;;;;;;;;;;10450571;28;20307;-66
2024/01/30 00:12:43;;;;;;;15.03;7.97;;;;;;;;;;10451155;28;20228;-66
2024/01/30 00:17:43;;;;;;;14.27;7.93;;;;;;;;;;10450792;28;20194;-68
2024/01/30 00:22:43;;;;;;;18.03;8.37;;;;;;;;;;10449876;28;20631;-67
2024/01/30 00:27:44;;;;;;;16.13;7.67;;;;;;;;;;10449850;28;20231;-67
2024/01/30 00:32:44;;;;;;;17.13;8.90;;;;;;;;;;10449903;28;20636;-68
2024/01/30 00:37:44;;;;;;;10.10;6.17;;;;;;;;;;10449484;28;20215;-67
2024/01/30 00:42:44;;;;;;;14.57;8.40;;;;;;;;;;10449948;28;20215;-66
2024/01/30 00:47:44;;;;;;;19.37;8.73;;;;;;;;;;10449420;28;20638;-65
2024/01/30 00:52:45;;;;;;;30.17;7.87;;;;;;;;;;10449665;28;20822;-65
2024/01/30 00:57:45;;;;;;;12.30;6.73;;;;;;;;;;10446845;28;20747;-68
2024/01/30 01:02:45;;;;;;;13.27;6.80;;;;;;;;;;10453478;28;20829;-66
2024/01/30 01:07:47;;;;;;;20.00;8.67;;;;;;;;;;10457364;28;20215;-67
2024/01/30 01:12:47;;;;;;;13.93;6.70;;;;;;;;;;10456843;28;20227;-68
2024/01/30 01:17:48;;;;;;;16.53;8.23;;;;;;;;;;10457270;28;20219;-66
2024/01/30 01:22:49;;;;;;;16.17;8.17;;;;;;;;;;10456840;28;20658;-66
2024/01/30 01:27:51;;;;;;;16.00;9.33;;;;;;;;;;10456542;28;20235;-66
2024/01/30 01:32:54;;;;;;;13.90;7.83;;;;;;;;;;10456553;28;20203;-66
2024/01/30 01:37:55;;;;;;;16.90;9.13;;;;;;;;;;10456224;28;20180;-66
2024/01/30 01:42:55;;;;;;;14.87;7.97;;;;;;;;;;10456364;28;20220;-66
2024/01/30 01:47:56;;;;;;;19.00;9.50;;;;;;;;;;10455696;28;20586;-66
2024/01/30 01:52:56;;;;;;;13.43;7.10;;;;;;;;;;10455764;28;20556;-66
2024/01/30 01:57:56;;;;;;;19.83;10.17;;;;;;;;;;10455523;28;20280;-68
2024/01/30 02:02:57;;;;;;;17.20;9.80;;;;;;;;;;10454311;28;20215;-68
2024/01/30 02:07:57;;;;;;;14.33;7.80;;;;;;;;;;10454535;28;20218;-68
2024/01/30 02:12:57;;;;;;;19.07;10.43;;;;;;;;;;10453921;28;20246;-68
2024/01/30 02:17:57;;;;;;;15.80;9.77;;;;;;;;;;10454764;28;20953;-66
2024/01/30 02:22:58;;;;;;;18.10;10.37;;;;;;;;;;10454197;28;20590;-65
2024/01/30 02:27:58;;;;;;;17.47;9.63;;;;;;;;;;10453941;28;20218;-67
2024/01/30 02:32:59;;;;;;;14.63;9.37;;;;;;;;;;10453639;28;20212;-67
2024/01/30 02:37:59;;;;;;;17.70;10.27;;;;;;;;;;10453579;28;20949;-67
2024/01/30 02:43:00;;;;;;;15.30;8.35;;;;;;;;;;10453792;28;20298;-67
2024/01/30 02:48:00;;;;;;;13.70;7.90;;;;;;;;;;10455468;28;20218;-67
2024/01/30 02:53:00;;;;;;;13.10;7.60;;;;;;;;;;10453874;28;20258;-67
2024/01/30 02:58:00;;;;;;;16.75;8.30;;;;;;;;;;10453580;28;20198;-67
2024/01/30 03:03:01;;;;;;;10.97;6.73;;;;;;;;;;10453252;28;20199;-66
2024/01/30 03:08:01;;;;;;;12.87;6.90;;;;;;;;;;10452778;28;20219;-67
2024/01/30 03:13:02;;;;;;;14.43;7.00;;;;;;;;;;10452715;28;20232;-68
2024/01/30 03:18:03;;;;;;;11.53;6.83;;;;;;;;;;10452403;28;20668;-67
2024/01/30 03:23:03;;;;;;;13.60;7.53;;;;;;;;;;10455915;28;20463;-66
2024/01/30 03:28:04;;;;;;;10.97;6.10;;;;;;;;;;10455929;28;20233;-67
2024/01/30 03:33:04;;;;;;;11.40;6.10;;;;;;;;;;10451878;28;21540;-67
2024/01/30 03:38:04;;;;;;;9.57;5.43;;;;;;;;;;10451680;28;20683;-67
2024/01/30 03:43:05;;;;;;;11.80;6.33;;;;;;;;;;10451140;28;20610;-67
2024/01/30 03:48:06;;;;;;;12.17;6.13;;;;;;;;;;10451393;28;20219;-67
2024/01/30 03:53:06;;;;;;;10.20;6.50;;;;;;;;;;10450854;28;20287;-67
2024/01/30 03:58:06;;;;;;;10.33;6.03;;;;;;;;;;10450901;28;20188;-67
2024/01/30 04:03:06;;;;;;;11.10;6.23;;;;;;;;;;10450816;28;20694;-67
2024/01/30 04:08:06;;;;;;;10.87;5.87;;;;;;;;;;10450322;28;20588;-67
2024/01/30 04:13:07;;;;;;;10.63;6.20;;;;;;;;;;10450286;28;20565;-67
2024/01/30 04:18:07;;;;;;;12.37;6.57;;;;;;;;;;10450161;28;20245;-67
2024/01/30 04:23:07;;;;;;;12.43;5.50;;;;;;;;;;10450369;28;20234;-67
2024/01/30 04:28:07;;;;;;;10.40;5.80;;;;;;;;;;10449518;28;20242;-67
2024/01/30 04:33:07;;;;;;;12.57;6.73;;;;;;;;;;10449996;28;20195;-67
2024/01/30 04:38:07;;;;;;;10.83;5.87;;;;;;;;;;10449532;28;20197;-68
2024/01/30 04:43:08;;;;;;;12.27;6.10;;;;;;;;;;10449583;28;20545;-67
2024/01/30 04:48:08;;;;;;;10.93;6.40;;;;;;;;;;10449512;28;20212;-67
2024/01/30 04:53:08;;;;;;;9.90;6.73;;;;;;;;;;10449521;28;20204;-67
2024/01/30 04:58:08;;;;;;;10.27;6.07;;;;;;;;;;10449367;28;20253;-67
2024/01/30 05:03:08;;;;;;;10.03;5.53;;;;;;;;;;10449068;28;20215;-67
2024/01/30 05:08:08;;;;;;;11.90;6.27;;;;;;;;;;10449242;28;20330;-67
2024/01/30 05:13:09;;;;;;;11.60;6.33;;;;;;;;;;10449028;28;20231;-67
2024/01/30 05:18:09;;;;;;;8.87;3.47;;;;;;;;;;10449293;28;20257;-67
2024/01/30 05:23:09;;;;;;;10.10;4.73;;;;;;;;;;10448576;28;20462;-67
2024/01/30 05:28:09;;;;;;;9.87;5.67;;;;;;;;;;10449025;28;20219;-67
2024/01/30 05:33:11;;;;;;;9.17;5.70;;;;;;;;;;10449011;28;20207;-68
2024/01/30 05:38:12;;;;;;;9.03;5.47;;;;;;;;;;10448727;28;20204;-67
2024/01/30 05:43:12;;;;;;;9.30;5.30;;;;;;;;;;10448883;28;20211;-68
2024/01/30 05:48:12;;;;;;;11.10;5.90;;;;;;;;;;10451219;28;20251;-67
2024/01/30 05:53:13;;;;;;;7.53;4.43;;;;;;;;;;10456045;28;20211;-67
2024/01/30 05:58:13;;;;;;;12.47;5.87;;;;;;;;;;10455358;28;20727;-67
2024/01/30 06:03:13;;;;;;;8.17;5.43;;;;;;;;;;10456951;28;20208;-67
2024/01/30 06:08:13;;;;;;;10.50;6.33;;;;;;;;;;10455314;28;20298;-68
2024/01/30 06:13:14;;;;;;;10.33;5.13;;;;;;;;;;10454633;28;20255;-67
2024/01/30 06:18:14;;;;;;;13.73;7.43;;;;;;;;;;10455167;28;20223;-68
2024/01/30 06:23:14;;;;;;;16.37;8.60;;;;;;;;;;10454430;28;20222;-68
2024/01/30 06:28:14;;;;;;;7.93;4.93;;;;;;;;;;10454521;28;20350;-67
2024/01/30 06:33:14;;;;;;;16.77;7.97;;;;;;;;;;10454263;28;20208;-68
2024/01/30 06:38:15;;;;;;;11.83;6.27;;;;;;;;;;10453973;28;20227;-66
2024/01/30 06:43:15;;;;;;;15.37;9.23;;;;;;;;;;10453763;28;20219;-67
2024/01/30 06:48:15;;;;;;;19.90;11.83;;;;;;;;;;10453465;28;20261;-65
2024/01/30 06:53:16;;;;;;;12.80;5.97;;;;;;;;;;10454705;28;20212;-66
2024/01/30 06:58:16;;;;;;;14.00;6.93;;;;;;;;;;10450102;28;20241;-68
2024/01/30 07:03:16;;;;;;;14.03;6.93;;;;;;;;;;10452113;28;20254;-68
2024/01/30 07:08:20;;;;;;;15.87;8.83;;;;;;;;;;10452427;28;20212;-68
2024/01/30 07:13:20;;;;;;;14.77;7.93;;;;;;;;;;10452264;28;20227;-67
2024/01/30 07:18:21;;;;;;;12.13;7.13;;;;;;;;;;10452294;28;20202;-67
2024/01/30 07:23:21;;;;;;;15.27;8.30;;;;;;;;;;10453484;28;20211;-68
2024/01/30 07:28:21;;;;;;;12.00;6.77;;;;;;;;;;10459893;28;20208;-68
2024/01/30 07:33:21;;;;;;;11.60;7.27;;;;;;;;;;10455019;28;20239;-67
2024/01/30 07:38:21;;;;;;;12.43;6.97;;;;;;;;;;10451609;28;20192;-66
2024/01/30 07:43:22;;;;;;;14.43;7.00;;;;;;;;;;10451348;28;20231;-65
2024/01/30 07:48:22;;;;;;;12.73;7.37;;;;;;;;;;10451309;28;20208;-67
2024/01/30 07:53:22;;;;;;;15.17;7.47;;;;;;;;;;10450714;28;20698;-67
2024/01/30 07:58:23;;;;;;;14.00;6.63;;;;;;;;;;10445036;28;20188;-66
2024/01/30 08:03:24;;;;;;;12.93;6.80;;;;;;;;;;10448947;28;20230;-66
2024/01/30 08:08:25;;;;;;;14.47;6.23;;;;;;;;;;10448664;28;20227;-65
2024/01/30 08:13:25;;;;;;;8.10;4.63;;;;;;;;;;10446660;28;20373;-68
2024/01/30 08:18:26;;;;;;;10.37;4.53;;;;;;;;;;10448292;28;20397;-68
2024/01/30 08:23:26;;;;;;;10.33;6.23;;;;;;;;;;10449386;28;20207;-67
2024/01/30 08:28:26;;;;;;;9.33;5.47;;;;;;;;;;10447400;28;20221;-68
2024/01/30 08:33:26;;;;;;;11.13;5.43;;;;;;;;;;10448169;28;20204;-68
2024/01/30 08:38:26;;;;;;;9.20;4.83;;;;;;;;;;10446070;28;20210;-68
2024/01/30 08:43:27;;;;;;;11.27;6.03;;;;;;;;;;10446784;28;20257;-68
2024/01/30 08:48:27;;;;;;;11.20;5.50;;;;;;;;;;10447049;28;20221;-68
2024/01/30 08:53:27;;;;;;;11.33;5.30;;;;;;;;;;10447991;28;20251;-67
2024/01/30 08:58:27;;;;;;;10.57;5.77;;;;;;;;;;10448457;28;20251;-68
2024/01/30 09:03:27;;;;;;;9.63;5.30;;;;;;;;;;10447871;28;20222;-68
2024/01/30 09:08:28;;;;;;;9.40;5.53;;;;;;;;;;10448015;28;20204;-68
2024/01/30 09:13:28;;;;;;;10.23;5.93;;;;;;;;;;10447636;28;20247;-68
2024/01/30 09:18:28;;;;;;;8.93;5.20;;;;;;;;;;10446571;28;20215;-68
2024/01/30 09:23:28;;;;;;;8.63;4.67;;;;;;;;;;10451568;28;20219;-68
2024/01/30 09:28:28;;;;;;;10.13;5.10;;;;;;;;;;10455592;28;20223;-69
2024/01/30 09:33:29;;;;;;;10.93;5.60;;;;;;;;;;10455374;28;20694;-68
2024/01/30 09:38:29;;;;;;;9.63;6.80;;;;;;;;;;10455017;28;20211;-68
2024/01/30 09:43:32;;;;;;;8.40;5.03;;;;;;;;;;10454989;28;20269;-67
2024/01/30 09:48:33;;;;;;;11.83;5.20;;;;;;;;;;10453671;28;20238;-68
2024/01/30 09:53:34;;;;;;;10.80;5.60;;;;;;;;;;10454295;28;20212;-68
2024/01/30 09:58:34;;;;;;;9.40;5.10;;;;;;;;;;10454621;28;20674;-67
2024/01/30 10:03:34;;;;;;;8.43;5.20;;;;;;;;;;10457063;28;20215;-67
2024/01/30 10:08:34;;;;;;;8.10;5.07;;;;;;;;;;10462185;28;20296;-67
2024/01/30 10:13:35;;;;;;;9.37;6.37;;;;;;;;;;10460444;28;20246;-66
2024/01/30 10:18:35;;;;;;;8.47;5.10;;;;;;;;;;10453721;28;20192;-67
2024/01/30 10:23:35;;;;;;;10.10;5.33;;;;;;;;;;10452197;28;20212;-67
2024/01/30 10:28:36;;;;;;;14.10;7.20;;;;;;;;;;10453556;28;20212;-67
2024/01/30 10:33:36;;;;;;;8.37;5.53;;;;;;;;;;10452403;28;20302;-67
2024/01/30 10:38:38;;;;;;;5.17;3.70;;;;;;;;;;10452852;28;20583;-67
2024/01/30 10:43:40;;;;;;;10.27;5.50;;;;;;;;;;10455437;28;20761;-67
2024/01/30 10:48:42;;;;;;;9.43;5.43;;;;;;;;;;10455670;28;20251;-68
2024/01/30 10:53:46;;;;;;;7.93;5.13;;;;;;;;;;10455720;28;20207;-68
2024/01/30 10:58:47;;;;;;;8.80;5.22;;;;;;;;;;10463020;28;20228;-68
2024/01/30 11:03:47;;;;;;;10.37;4.83;;;;;;;;;;10461354;28;20315;-68
2024/01/30 11:09:00;;;;;;;8.32;5.05;;;;;;;;;;10451514;28;20212;-68
2024/01/30 11:14:00;;;;;;;6.80;4.00;;;;;;;;;;10455238;28;20478;-68
2024/01/30 11:19:02;;;;;;;7.70;4.57;;;;;;;;;;10453159;28;20184;-69
2024/01/30 11:24:02;;;;;;;9.52;5.20;;;;;;;;;;10452840;28;20216;-69
2024/01/30 11:29:09;;;;;;;6.05;4.57;;;;;;;;;;10453676;28;20223;-69
2024/01/30 11:34:10;;;;;;;6.60;4.43;;;;;;;;;;10450216;28;20674;-68
2024/01/30 11:39:10;;;;;;;8.17;5.10;;;;;;;;;;10450497;28;20241;-67
2024/01/30 11:44:10;;;;;;;6.63;4.50;;;;;;;;;;10449127;28;20215;-67
2024/01/30 11:49:10;;;;;;;12.57;5.93;;;;;;;;;;10450289;28;20224;-67
2024/01/30 11:54:10;;;;;;;10.90;5.50;;;;;;;;;;10449569;28;20698;-67
2024/01/30 11:59:11;;;;;;;8.17;4.83;;;;;;;;;;10449316;28;20190;-67
2024/01/30 12:04:11;;;;;;;11.83;6.10;;;;;;;;;;10452353;28;20235;-68
2024/01/30 12:09:13;;;;;;;10.43;5.87;;;;;;;;;;10466390;28;20211;-65
2024/01/30 12:14:13;;;;;;;12.77;4.60;;;;;;;;;;10465028;28;20319;-67
2024/01/30 12:19:20;;;;;;;8.97;5.73;;;;;;;;;;10464850;28;20200;-67
2024/01/30 12:24:21;;;;;;;8.73;5.20;;;;;;;;;;10462478;28;20753;-67
2024/01/30 12:29:22;;;;;;;13.30;6.73;;;;;;;;;;10458792;28;20216;-67
2024/01/30 12:34:24;;;;;;;11.40;5.93;;;;;;;;;;10448296;28;20298;-69
2024/01/30 12:39:24;;;;;;;9.13;4.67;;;;;;;;;;10449011;28;20570;-68
2024/01/30 12:44:25;;;;;;;9.73;5.70;;;;;;;;;;10444794;28;20220;-70
2024/01/30 12:49:25;;;;;;;9.50;5.27;;;;;;;;;;10448215;28;20223;-69
2024/01/30 12:54:25;;;;;;;11.67;6.50;;;;;;;;;;10447491;28;20553;-69
2024/01/30 12:59:25;;;;;;;9.53;6.13;;;;;;;;;;10454693;28;20669;-69
2024/01/30 13:04:25;;;;;;;10.33;6.77;;;;;;;;;;10455237;28;20697;-68
2024/01/30 13:15:13;;;;;;;11.73;6.20;;;;;;;;;;10453455;28;20219;-69
2024/01/30 13:20:19;;;;;;;12.47;6.43;;;;;;;;;;10455055;28;20196;-68
2024/01/30 13:25:19;;;;;;;11.60;6.70;;;;;;;;;;10455028;28;20295;-69
2024/01/30 13:30:19;;;;;;;10.20;5.87;;;;;;;;;;10465473;28;20221;-67
2024/01/30 13:35:19;;;;;;;13.53;8.03;;;;;;;;;;10463205;28;20239;-68
2024/01/30 13:40:22;;;;;;;9.27;6.00;;;;;;;;;;10460519;28;20176;-68
2024/01/30 13:45:22;;;;;;;13.00;6.77;;;;;;;;;;10463947;28;20284;-68
2024/01/30 13:50:22;;;;;;;7.70;5.63;;;;;;;;;;10453101;28;20238;-68
2024/01/30 13:55:23;;;;;;;9.40;6.20;;;;;;;;;;10446030;28;20208;-68
2024/01/30 14:00:25;;;;;;;11.70;6.17;;;;;;;;;;10458841;28;20188;-69
2024/01/30 14:05:28;;;;;;;11.43;6.67;;;;;;;;;;10453526;28;20259;-69
2024/01/30 14:10:29;;;;;;;10.33;6.37;;;;;;;;;;10452746;28;20242;-69
2024/01/30 14:15:29;;;;;;;10.53;6.43;;;;;;;;;;10453005;28;20273;-68
2024/01/30 14:20:29;;;;;;;10.57;5.77;;;;;;;;;;10452266;28;20196;-69
2024/01/30 14:25:29;;;;;;;9.70;6.40;;;;;;;;;;10452891;28;20590;-68
2024/01/30 14:30:30;;;;;;;11.70;6.13;;;;;;;;;;10452425;28;20220;-68
2024/01/30 14:35:30;;;;;;;14.67;7.07;;;;;;;;;;10453146;28;20242;-68
2024/01/30 14:40:30;;;;;;;11.07;6.30;;;;;;;;;;10462881;28;20659;-67
2024/01/30 14:45:31;;;;;;;12.93;6.90;;;;;;;;;;10464169;28;20258;-68
2024/01/30 14:50:31;;;;;;;13.10;6.43;;;;;;;;;;10462816;28;20211;-68
2024/01/30 14:55:32;;;;;;;12.27;6.53;;;;;;;;;;10455043;28;20718;-67
2024/01/30 15:00:32;;;;;;;14.80;6.73;;;;;;;;;;10451761;28;20195;-67
2024/01/30 15:05:32;;;;;;;11.20;6.37;;;;;;;;;;10453064;28;20211;-67
2024/01/30 15:10:33;;;;;;;20.93;10.20;;;;;;;;;;10457061;28;20227;-68
2024/01/30 15:15:34;;;;;;;108.27;52.27;;;;;;;;;;10454766;28;20226;-68
2024/01/30 15:20:34;;;;;;;12.77;7.77;;;;;;;;;;10455028;28;20192;-68
2024/01/30 15:25:34;;;;;;;16.87;9.23;;;;;;;;;;10462396;28;20226;-68
2024/01/30 15:30:34;;;;;;;18.00;9.73;;;;;;;;;;10462051;28;20473;-68
2024/01/30 15:35:35;;;;;;;15.50;8.40;;;;;;;;;;10463450;28;20222;-68
2024/01/30 15:40:35;;;;;;;17.30;8.20;;;;;;;;;;10463312;28;20483;-68
2024/01/30 15:45:35;;;;;;;12.87;6.80;;;;;;;;;;10461337;28;20268;-67
2024/01/30 15:50:35;;;;;;;16.00;8.33;;;;;;;;;;10448999;28;20215;-68
2024/01/30 15:55:35;;;;;;;11.90;7.60;;;;;;;;;;10464031;28;20298;-68
2024/01/30 16:00:36;;;;;;;14.50;7.20;;;;;;;;;;10463484;28;20203;-68
2024/01/30 16:05:36;;;;;;;13.73;7.40;;;;;;;;;;10466523;28;20245;-68
2024/01/30 16:10:36;;;;;;;11.10;5.93;;;;;;;;;;10466028;28;20471;-68
2024/01/30 16:15:39;;;;;;;12.50;6.47;;;;;;;;;;10464687;28;20230;-67
2024/01/30 16:20:39;;;;;;;11.17;6.93;;;;;;;;;;10446564;28;20188;-68
2024/01/30 16:25:39;;;;;;;12.57;6.10;;;;;;;;;;10452484;28;20200;-67
2024/01/30 16:30:40;;;;;;;9.83;6.80;;;;;;;;;;10457717;28;20326;-68
2024/01/30 16:35:41;;;;;;;11.47;6.63;;;;;;;;;;10455289;28;20242;-67
2024/01/30 16:40:41;;;;;;;12.80;6.17;;;;;;;;;;10459715;28;20192;-68
2024/01/30 16:45:41;;;;;;;11.40;6.50;;;;;;;;;;10463813;28;20187;-68
2024/01/30 16:50:42;;;;;;;13.13;6.27;;;;;;;;;;10462772;28;20624;-68
2024/01/30 16:55:42;;;;;;;12.40;6.87;;;;;;;;;;10449294;28;20211;-68
2024/01/30 17:00:42;;;;;;;20.37;12.67;;;;;;;;;;10448897;28;20188;-68
2024/01/30 17:05:42;;;;;;;20.00;9.97;;;;;;;;;;10461712;28;20742;-68
2024/01/30 17:10:42;;;;;;;10.27;5.90;;;;;;;;;;10460471;28;20261;-68
2024/01/30 17:15:43;;;;;;;8.43;5.90;;;;;;;;;;10463648;28;20188;-68
2024/01/30 17:20:43;;;;;;;11.20;6.37;;;;;;;;;;10458990;28;20275;-68
2024/01/30 17:25:43;;;;;;;47.63;15.90;;;;;;;;;;10451262;28;20245;-68
2024/01/30 17:30:43;;;;;;;79.90;22.20;;;;;;;;;;10455032;28;20211;-68
2024/01/30 17:35:43;;;;;;;23.83;12.23;;;;;;;;;;10449526;28;20283;-68
2024/01/30 17:40:44;;;;;;;11.50;6.47;;;;;;;;;;10452367;28;20188;-68
2024/01/30 17:45:44;;;;;;;8.07;5.00;;;;;;;;;;10461136;28;20230;-68
2024/01/30 17:50:44;;;;;;;10.70;5.23;;;;;;;;;;10454246;28;20323;-68
2024/01/30 17:55:44;;;;;;;6.40;4.63;;;;;;;;;;10454880;28;20184;-68
2024/01/30 18:00:44;;;;;;;8.60;4.97;;;;;;;;;;10453179;28;20283;-67
2024/01/30 18:05:45;;;;;;;8.77;5.07;;;;;;;;;;10451969;28;20192;-68
2024/01/30 18:10:45;;;;;;;9.73;4.90;;;;;;;;;;10454147;28;20298;-68
2024/01/30 18:15:45;;;;;;;8.90;4.47;;;;;;;;;;10455093;28;20716;-68
2024/01/30 18:20:45;;;;;;;7.10;3.70;;;;;;;;;;10454905;28;20215;-68
2024/01/30 18:25:45;;;;;;;6.80;4.07;;;;;;;;;;10452915;28;20248;-68
2024/01/30 18:30:45;;;;;;;7.67;4.20;;;;;;;;;;10451000;28;20273;-69
2024/01/30 18:35:46;;;;;;;4.47;3.60;;;;;;;;;;10449998;28;20184;-68
2024/01/30 18:40:46;;;;;;;7.77;4.47;;;;;;;;;;10449641;28;20203;-69
2024/01/30 18:45:51;;;;;;;7.17;4.30;;;;;;;;;;10447784;28;20291;-69
2024/01/30 18:50:51;;;;;;;5.87;4.27;;;;;;;;;;10447265;28;20220;-68
2024/01/30 18:55:52;;;;;;;7.00;3.67;;;;;;;;;;10449113;28;20580;-69
2024/01/30 19:00:52;;;;;;;11.27;5.80;;;;;;;;;;10452131;28;20430;-68
2024/01/30 19:05:53;;;;;;;12.00;5.87;;;;;;;;;;10452653;28;20658;-69
2024/01/30 19:10:53;;;;;;;7.23;3.90;;;;;;;;;;10450590;28;20231;-68
2024/01/30 19:15:54;;;;;;;4.87;3.90;;;;;;;;;;10449907;28;20184;-68
2024/01/30 19:20:54;;;;;;;6.97;3.67;;;;;;;;;;10451976;28;20238;-67
2024/01/30 19:25:55;;;;;;;9.17;5.93;;;;;;;;;;10451014;28;20263;-68
2024/01/30 19:30:56;;;;;;;7.00;4.10;;;;;;;;;;10460689;28;20215;-67
2024/01/30 19:35:59;;;;;;;6.13;3.87;;;;;;;;;;10459733;28;21058;-67
2024/01/30 19:40:59;;;;;;;8.70;5.27;;;;;;;;;;10461189;28;20223;-67
2024/01/30 19:45:59;;;;;;;5.83;3.50;;;;;;;;;;10453976;28;20580;-68
2024/01/30 19:51:00;;;;;;;9.53;4.30;;;;;;;;;;10450626;28;20242;-68
2024/01/30 19:56:00;;;;;;;7.83;5.20;;;;;;;;;;10450882;28;20204;-68
2024/01/30 20:01:00;;;;;;;8.03;4.50;;;;;;;;;;10449658;28;20234;-68
2024/01/30 20:06:00;;;;;;;5.80;4.00;;;;;;;;;;10449695;28;20878;-67
2024/01/30 20:11:02;;;;;;;7.40;4.20;;;;;;;;;;10449770;28;20239;-68
2024/01/30 20:16:03;;;;;;;6.67;3.87;;;;;;;;;;10449311;28;20183;-68
2024/01/30 20:21:03;;;;;;;12.23;6.23;;;;;;;;;;10449699;28;20218;-68
2024/01/30 20:26:03;;;;;;;7.17;4.20;;;;;;;;;;10449306;28;20266;-68
2024/01/30 20:31:03;;;;;;;8.23;4.80;;;;;;;;;;10447731;28;20304;-67
2024/01/30 20:36:07;;;;;;;11.37;4.10;;;;;;;;;;10449144;28;20233;-67
2024/01/30 20:41:10;;;;;;;9.00;4.07;;;;;;;;;;10448221;28;20701;-67
2024/01/30 20:46:13;;;;;;;5.83;3.67;;;;;;;;;;10449119;28;20261;-68
2024/01/30 20:51:13;;;;;;;10.80;4.43;;;;;;;;;;10448305;28;20234;-67
2024/01/30 20:56:14;;;;;;;9.13;4.00;;;;;;;;;;10449064;28;20200;-69
2024/01/30 21:01:14;;;;;;;8.47;4.23;;;;;;;;;;10448402;28;20294;-68
2024/01/30 21:06:14;;;;;;;8.17;3.80;;;;;;;;;;10448779;28;20567;-68
2024/01/30 21:11:17;;;;;;;11.70;3.57;;;;;;;;;;10448425;28;20569;-69
2024/01/30 21:16:18;;;;;;;8.20;3.70;;;;;;;;;;10448391;28;20183;-68
2024/01/30 21:21:18;;;;;;;6.30;4.60;;;;;;;;;;10456588;28;20214;-68
2024/01/30 21:26:18;;;;;;;8.07;3.77;;;;;;;;;;10453825;28;20225;-68
2024/01/30 21:31:18;;;;;;;5.83;3.87;;;;;;;;;;10455519;28;20220;-68
2024/01/30 21:36:18;;;;;;;8.63;4.10;;;;;;;;;;10455877;28;20278;-68
2024/01/30 21:41:20;;;;;;;12.97;4.57;;;;;;;;;;10455611;28;20214;-68
2024/01/30 21:46:26;;;;;;;8.50;3.90;;;;;;;;;;10456358;28;20273;-68
2024/01/30 21:51:27;;;;;;;9.27;4.07;;;;;;;;;;10453909;28;20216;-68
2024/01/30 21:56:27;;;;;;;8.90;4.43;;;;;;;;;;10456078;28;20192;-68
2024/01/30 22:01:27;;;;;;;12.07;4.70;;;;;;;;;;10455476;28;20216;-68
2024/01/30 22:06:27;;;;;;;7.00;4.37;;;;;;;;;;10454957;28;20257;-68
2024/01/30 22:11:27;;;;;;;12.60;4.53;;;;;;;;;;10455036;28;20238;-68
2024/01/30 22:16:27;;;;;;;13.23;5.20;;;;;;;;;;10454080;28;20192;-68
2024/01/30 22:21:28;;;;;;;10.17;4.80;;;;;;;;;;10455122;28;20235;-68
2024/01/30 22:26:28;;;;;;;14.13;4.73;;;;;;;;;;10454667;28;20569;-68
2024/01/30 22:31:28;;;;;;;13.20;5.07;;;;;;;;;;10453581;28;20285;-68
2024/01/30 22:36:30;;;;;;;10.27;4.60;;;;;;;;;;10453645;28;20196;-68
2024/01/30 22:41:30;;;;;;;9.40;4.90;;;;;;;;;;10454512;28;20215;-68
2024/01/30 22:46:31;;;;;;;8.30;5.17;;;;;;;;;;10454172;28;20200;-67
2024/01/30 22:51:31;;;;;;;11.17;4.70;;;;;;;;;;10453808;28;20603;-68
2024/01/30 22:56:32;;;;;;;15.23;5.40;;;;;;;;;;10450912;28;20195;-68
2024/01/30 23:01:32;;;;;;;9.77;5.00;;;;;;;;;;10453724;28;20208;-68
2024/01/30 23:06:32;;;;;;;9.57;5.53;;;;;;;;;;10454383;28;20199;-68
2024/01/30 23:11:32;;;;;;;13.10;5.30;;;;;;;;;;10452889;28;20288;-68
2024/01/30 23:16:32;;;;;;;10.33;4.80;;;;;;;;;;10453082;28;20680;-68
2024/01/30 23:21:32;;;;;;;13.43;5.50;;;;;;;;;;10452607;28;20306;-68
2024/01/30 23:26:33;;;;;;;15.60;5.37;;;;;;;;;;10452670;28;20195;-67
2024/01/30 23:31:33;;;;;;;11.73;5.20;;;;;;;;;;10452790;28;20940;-68
2024/01/30 23:36:38;;;;;;;9.27;4.87;;;;;;;;;;10452265;28;20246;-67
2024/01/30 23:41:38;;;;;;;11.10;4.90;;;;;;;;;;10451192;28;20341;-68
2024/01/30 23:46:38;;;;;;;8.10;4.93;;;;;;;;;;10451706;28;20326;-68
2024/01/30 23:51:38;;;;;;;14.07;5.03;;;;;;;;;;10451418;28;20702;-68
2024/01/30 23:56:42;;;;;;;7.53;4.90;;;;;;;;;;10451095;28;20637;-67
